Time;durP1;ratioP1;P1;durP2;ratioP2;P2;SDS_P1;SDS_P2;PMS_P1;PMS_P2;Temp;Humidity;BMP_temperature;BMP_pressure;BME280_temperature;BME280_humidity;BME280_pressure;Samples;Min_cycle;Max_cycle;Signal;HPM_P1;HPM_P2
2022/08/05 00:00:14;;;;;;;2.00;1.75;;;;;;;23.53;83.07;94547.56;5018544;28;20065;-90
2022/08/05 00:02:41;;;;;;;3.92;2.00;;;;;;;23.55;84.30;94539.97;5018372;28;20038;-90
2022/08/05 00:05:07;;;;;;;2.30;1.88;;;;;;;23.94;78.84;94548.13;5002088;28;20052;-90
2022/08/05 00:07:32;;;;;;;4.95;1.80;;;;;;;24.09;77.46;94543.88;5002033;28;20030;-89
2022/08/05 00:09:58;;;;;;;3.90;1.98;;;;;;;24.21;76.03;94542.97;5018414;28;20034;-89
2022/08/05 00:12:23;;;;;;;4.00;1.90;;;;;;;24.28;75.39;94543.13;5002146;28;20041;-89
2022/08/05 00:14:49;;;;;;;5.78;2.22;;;;;;;24.36;74.76;94544.03;5018243;28;20030;-89
2022/08/05 00:17:14;;;;;;;5.80;1.92;;;;;;;24.30;74.65;94545.44;5018211;28;20387;-90
2022/08/05 00:19:40;;;;;;;2.85;1.90;;;;;;;24.29;75.21;94536.63;5001894;28;20045;-90
2022/08/05 00:22:15;;;;;;;2.10;1.90;;;;;;;24.34;74.60;94545.53;5018980;28;20030;-90
2022/08/05 00:24:43;;;;;;;2.50;1.90;;;;;;;24.27;75.09;94538.88;5018066;28;20029;-89
2022/08/05 00:27:09;;;;;;;3.55;1.92;;;;;;;24.08;76.93;94536.19;5001624;28;20359;-89
2022/08/05 00:29:34;;;;;;;5.03;1.80;;;;;;;23.98;77.47;94537.50;5001693;28;20034;-89
2022/08/05 00:32:00;;;;;;;2.47;1.88;;;;;;;23.74;80.38;94531.22;5001985;28;20044;-89
2022/08/05 00:34:26;;;;;;;2.95;1.90;;;;;;;23.43;85.26;94530.91;5017765;28;20061;-89
2022/08/05 00:36:51;;;;;;;2.30;1.77;;;;;;;23.48;83.35;94529.13;5001724;28;20060;-89
2022/08/05 00:39:17;;;;;;;2.47;1.50;;;;;;;23.47;84.48;94527.56;5017208;28;20041;-90
2022/08/05 00:41:47;;;;;;;2.95;2.00;;;;;;;23.13;88.06;94533.22;5001303;28;20026;-90
2022/08/05 00:44:12;;;;;;;4.88;1.60;;;;;;;23.01;88.10;94531.38;5017310;28;20026;-89
2022/08/05 00:46:40;;;;;;;4.60;1.90;;;;;;;23.18;87.25;94522.25;5017551;28;20026;-89
2022/08/05 00:49:08;;;;;;;3.05;1.92;;;;;;;22.88;90.02;94526.13;5018820;28;20063;-90
2022/08/05 00:51:35;;;;;;;5.88;2.00;;;;;;;22.88;90.99;94522.66;5001023;28;20034;-89
2022/08/05 00:54:04;;;;;;;4.30;2.00;;;;;;;22.79;93.50;94528.16;5017384;28;20026;-89
2022/08/05 00:56:30;;;;;;;3.28;1.80;;;;;;;22.89;90.35;94521.53;5018288;28;20029;-89
2022/08/05 00:58:55;;;;;;;6.63;1.77;;;;;;;23.06;88.58;94520.44;5010045;28;20040;-90
2022/08/05 01:01:21;;;;;;;3.58;2.00;;;;;;;22.97;90.02;94517.16;5016047;28;20025;-90
2022/08/05 01:03:46;;;;;;;2.60;1.80;;;;;;;23.07;89.14;94527.34;5001639;28;20052;-88
2022/08/05 01:06:12;;;;;;;6.00;1.80;;;;;;;22.85;91.64;94518.78;5020328;28;20026;-89
2022/08/05 01:08:37;;;;;;;5.25;1.75;;;;;;;23.21;87.09;94523.47;5017229;28;20025;-90
2022/08/05 01:11:14;;;;;;;4.38;1.98;;;;;;;23.27;86.46;94519.44;5001047;28;20559;-89
2022/08/05 01:14:00;;;;;;;1.92;1.70;;;;;;;23.36;85.53;94522.72;5000902;28;20435;-89
2022/08/05 01:16:55;;;;;;;5.32;2.25;;;;;;;23.28;87.83;94519.09;5018082;28;20116;-89
2022/08/05 01:19:21;;;;;;;3.95;2.10;;;;;;;23.11;87.81;94517.50;5012398;28;20038;-90
2022/08/05 01:22:17;;;;;;;4.35;1.98;;;;;;;23.27;86.95;94522.13;5017077;28;20168;-90
2022/08/05 01:24:58;;;;;;;3.60;2.03;;;;;;;23.00;88.54;94516.47;5016800;28;20030;-89
2022/08/05 01:27:46;;;;;;;3.05;2.00;;;;;;;22.98;89.15;94519.50;5001772;28;20342;-90
2022/08/05 01:30:11;;;;;;;3.65;1.98;;;;;;;22.94;89.95;94515.19;5016754;28;20022;-89
2022/08/05 01:32:40;;;;;;;4.85;2.20;;;;;;;22.88;90.51;94511.97;5000753;28;20084;-89
2022/08/05 01:35:08;;;;;;;2.15;1.83;;;;;;;22.78;91.73;94515.94;5000648;28;20025;-90
2022/08/05 01:37:51;;;;;;;3.42;1.95;;;;;;;22.71;92.16;94515.72;4999994;28;20026;-89
2022/08/05 01:40:21;;;;;;;3.58;2.00;;;;;;;22.76;91.28;94526.19;5016663;28;20064;-89
2022/08/05 01:42:47;;;;;;;3.20;2.05;;;;;;;22.82;92.04;94516.78;5016825;28;20362;-89
2022/08/05 01:45:14;;;;;;;4.38;1.90;;;;;;;22.69;91.59;94515.28;5016585;28;20029;-89
2022/08/05 01:47:40;;;;;;;8.63;2.00;;;;;;;22.59;92.85;94512.00;5000430;28;20351;-89
2022/08/05 01:50:30;;;;;;;4.32;2.00;;;;;;;22.58;93.19;94510.44;5016209;28;20120;-89
2022/08/05 01:53:01;;;;;;;3.10;1.98;;;;;;;22.56;93.52;94511.91;4994866;28;20427;-89
2022/08/05 01:55:28;;;;;;;2.58;1.83;;;;;;;22.56;94.47;94506.56;5000296;28;20032;-89
2022/08/05 01:57:58;;;;;;;4.45;2.13;;;;;;;22.63;94.72;94508.66;4999967;28;20040;-89
2022/08/05 02:00:25;;;;;;;2.95;2.00;;;;;;;22.65;92.49;94507.19;5000577;28;20037;-89
2022/08/05 02:02:56;;;;;;;4.90;1.85;;;;;;;22.72;92.27;94507.38;5016497;28;20026;-88
2022/08/05 02:05:25;;;;;;;3.25;1.95;;;;;;;22.68;93.11;94500.41;5016661;28;20022;-89
2022/08/05 02:07:51;;;;;;;4.13;1.90;;;;;;;22.64;93.64;94508.31;4999810;28;20033;-90
2022/08/05 02:10:22;;;;;;;5.50;1.90;;;;;;;22.60;94.23;94504.78;5016034;28;20375;-89
2022/08/05 02:12:55;;;;;;;2.28;1.77;;;;;;;22.43;95.79;94509.25;5000404;28;20033;-89
2022/08/05 02:15:34;;;;;;;6.65;2.00;;;;;;;22.38;96.42;94506.06;5016213;28;20030;-90
2022/08/05 02:18:06;;;;;;;5.22;2.13;;;;;;;22.38;97.92;94509.50;4999698;28;20066;-89
2022/08/05 02:20:45;;;;;;;3.35;1.80;;;;;;;22.29;99.41;94500.88;5015892;28;20021;-90
2022/08/05 02:23:11;;;;;;;2.55;2.08;;;;;;;22.35;97.56;94501.41;4999812;28;20028;-90
2022/08/05 02:25:49;;;;;;;;;;;;;;;;;;;;;
2022/08/05 02:28:18;;;;;;;4.05;1.70;;;;;;;22.30;97.27;94505.09;5015904;28;20024;-89
2022/08/05 02:30:59;;;;;;;3.15;2.13;;;;;;;22.27;95.96;94503.09;4999598;28;20375;-89
2022/08/05 02:33:30;;;;;;;5.38;1.88;;;;;;;22.30;95.41;94505.84;5015929;28;20034;-89
2022/08/05 02:35:57;;;;;;;2.90;1.90;;;;;;;22.29;99.47;94501.63;5016066;28;20041;-89
2022/08/05 02:38:25;;;;;;;5.40;2.03;;;;;;;22.26;97.31;94499.63;5015818;28;20080;-89
2022/08/05 02:40:52;;;;;;;3.42;2.33;;;;;;;22.33;98.05;94496.38;4999538;28;20463;-89
2022/08/05 02:43:19;;;;;;;6.53;1.90;;;;;;;22.37;97.28;94502.59;4999653;28;20317;-89
2022/08/05 02:45:45;;;;;;;3.17;1.85;;;;;;;22.38;96.91;94500.72;4999943;28;20088;-89
2022/08/05 02:48:13;;;;;;;4.40;1.90;;;;;;;22.44;96.10;94500.13;4999943;28;20073;-90
2022/08/05 02:50:50;;;;;;;5.70;2.30;;;;;;;22.48;95.30;94502.16;4999675;28;20351;-89
2022/08/05 02:53:19;;;;;;;3.63;2.47;;;;;;;22.35;97.61;94491.50;5015751;28;20033;-89
2022/08/05 02:55:47;;;;;;;3.03;1.90;;;;;;;22.44;96.00;94486.00;5000275;28;20033;-89
2022/08/05 02:58:15;;;;;;;3.08;1.90;;;;;;;22.42;96.45;94493.56;4999856;28;20432;-90
2022/08/05 03:00:41;;;;;;;7.20;2.10;;;;;;;22.37;96.34;94486.59;5015651;28;20032;-89
2022/08/05 03:03:09;;;;;;;4.20;2.20;;;;;;;22.21;98.98;94491.09;5019608;28;20030;-90
2022/08/05 03:05:34;;;;;;;3.30;2.03;;;;;;;22.21;99.09;94488.41;5019364;28;20122;-89
2022/08/05 03:08:00;;;;;;;5.78;2.10;;;;;;;22.11;100.00;94484.34;5019647;28;20114;-89
2022/08/05 03:10:27;;;;;;;2.85;1.88;;;;;;;22.07;100.00;94483.47;5003295;28;20029;-90
2022/08/05 03:12:53;;;;;;;2.58;2.08;;;;;;;22.17;99.24;94485.69;5019011;28;20049;-89
2022/08/05 03:15:21;;;;;;;3.28;1.90;;;;;;;22.17;98.61;94486.44;5020873;28;20030;-89
2022/08/05 03:17:47;;;;;;;2.17;1.80;;;;;;;22.14;98.48;94484.44;5003532;28;20033;-89
2022/08/05 03:20:12;;;;;;;3.08;1.65;;;;;;;22.24;98.56;94485.09;5003042;28;20029;-89
2022/08/05 03:22:40;;;;;;;8.18;2.05;;;;;;;22.25;97.20;94483.97;5006499;28;20132;-89
2022/08/05 03:25:09;;;;;;;2.85;1.90;;;;;;;22.18;97.43;94477.31;5021231;28;20091;-89
2022/08/05 03:27:34;;;;;;;2.95;1.52;;;;;;;22.24;97.63;94482.44;5029435;28;20385;-89
2022/08/05 03:30:00;;;;;;;2.95;2.00;;;;;;;22.11;98.08;94484.34;5040380;28;20048;-89
2022/08/05 03:32:25;;;;;;;4.05;2.10;;;;;;;22.00;100.00;94474.13;5022752;28;20496;-89
2022/08/05 03:34:58;;;;;;;6.47;1.95;;;;;;;21.98;100.00;94480.94;5038711;28;20026;-90
2022/08/05 03:37:23;;;;;;;5.43;2.03;;;;;;;21.87;100.00;94477.94;5038621;28;20402;-89
2022/08/05 03:39:57;;;;;;;3.38;2.10;;;;;;;21.91;100.00;94476.19;5039893;28;20044;-89
2022/08/05 03:42:22;;;;;;;;;;;;;;;22.00;99.61;94481.38;5039301;28;20061;-89
2022/08/05 03:44:50;;;;;;;3.22;1.80;;;;;;;22.03;99.24;94473.47;5038546;28;19995;-90
2022/08/05 03:47:25;;;;;;;;;;;;;;;;;;;;;
2022/08/05 03:49:53;;;;;;;3.85;1.92;;;;;;;22.05;97.61;94473.13;5018579;28;20343;-90
2022/08/05 03:52:34;;;;;;;;;;;;;;;;;;;;;
2022/08/05 03:55:14;;;;;;;;;;;;;;;;;;;;;
2022/08/05 03:57:40;;;;;;;3.55;1.88;;;;;;;21.91;98.59;94470.84;5018715;28;20041;-90
2022/08/05 04:00:16;;;;;;;3.80;2.15;;;;;;;22.24;93.98;94474.44;5018428;28;20034;-89
2022/08/05 04:02:47;;;;;;;3.13;2.00;;;;;;;22.31;93.33;94466.59;5018603;28;20478;-90
2022/08/05 04:05:13;;;;;;;3.85;1.75;;;;;;;22.38;92.26;94472.16;5002074;28;20038;-89
2022/08/05 04:07:48;;;;;;;5.53;1.90;;;;;;;22.34;92.71;94471.25;5018381;28;20033;-88
2022/08/05 04:10:13;;;;;;;3.60;1.58;;;;;;;22.42;93.46;94473.00;5018827;28;20034;-89
2022/08/05 04:12:41;;;;;;;3.97;1.80;;;;;;;22.36;93.62;94473.59;5001214;28;20037;-90
2022/08/05 04:15:14;;;;;;;5.28;2.22;;;;;;;22.27;96.08;94477.16;5002166;28;20036;-89
2022/08/05 04:17:47;;;;;;;2.38;1.83;;;;;;;22.14;96.67;94481.00;5018298;28;20029;-90
2022/08/05 04:20:22;;;;;;;2.60;1.85;;;;;;;22.27;95.53;94473.75;5018145;28;20394;-89
2022/08/05 04:22:48;;;;;;;2.97;1.90;;;;;;;22.28;94.04;94476.06;5018238;28;20458;-88
2022/08/05 04:25:14;;;;;;;3.47;2.30;;;;;;;22.25;95.52;94478.66;5019037;28;20061;-88
2022/08/05 04:27:49;;;;;;;3.90;2.30;;;;;;;22.15;96.96;94485.22;5018264;28;20080;-88
2022/08/05 04:30:14;;;;;;;6.57;2.00;;;;;;;22.20;96.68;94486.88;5003211;28;20398;-88
2022/08/05 04:32:40;;;;;;;3.05;2.03;;;;;;;22.40;93.09;94487.81;5017641;28;20088;-88
2022/08/05 04:35:06;;;;;;;3.15;1.70;;;;;;;22.51;91.64;94490.78;5001465;28;20033;-88
2022/08/05 04:37:32;;;;;;;2.92;1.90;;;;;;;22.61;92.23;94494.88;5018906;28;20041;-88
2022/08/05 04:40:00;;;;;;;7.80;1.88;;;;;;;22.48;93.50;94486.13;5017687;28;20439;-86
2022/08/05 04:42:32;;;;;;;4.88;2.05;;;;;;;22.57;92.69;94486.75;5017461;28;20080;-87
2022/08/05 04:45:00;;;;;;;6.70;2.15;;;;;;;22.18;97.47;94489.91;5017610;28;20339;-88
2022/08/05 04:47:25;;;;;;;5.10;2.10;;;;;;;22.13;97.70;94490.13;5018794;28;20026;-87
2022/08/05 04:49:51;;;;;;;2.25;1.90;;;;;;;22.22;96.92;94492.63;5017541;28;20026;-87
2022/08/05 04:52:16;;;;;;;3.00;1.88;;;;;;;22.14;98.17;94484.44;5018612;28;20033;-87
2022/08/05 04:54:44;;;;;;;4.30;2.00;;;;;;;22.20;97.00;94487.66;5017352;28;20069;-87
2022/08/05 04:57:09;;;;;;;14.10;2.20;;;;;;;22.32;95.16;94486.84;5035716;28;20171;-87
2022/08/05 04:59:35;;;;;;;6.45;1.95;;;;;;;22.50;92.60;94484.69;5037125;28;20064;-88
2022/08/05 05:02:10;;;;;;;;;;;;;;;;;;;;;
2022/08/05 05:04:36;;;;;;;6.70;2.10;;;;;;;22.50;98.44;94479.34;5036831;28;20346;-89
2022/08/05 05:07:02;;;;;;;4.38;2.17;;;;;;;22.52;98.12;94487.00;5038223;28;20116;-89
2022/08/05 05:09:30;;;;;;;6.30;1.88;;;;;;;22.54;99.04;94472.19;5037020;28;20029;-89
2022/08/05 05:12:05;;;;;;;;;;;;;;;;;;;;;
2022/08/05 05:14:31;;;;;;;5.65;2.05;;;;;;;22.81;99.54;94479.72;5037696;28;20028;-87
2022/08/05 05:16:57;;;;;;;4.28;1.95;;;;;;;22.72;100.00;94470.00;5020576;28;20330;-87
2022/08/05 05:19:22;;;;;;;6.30;2.10;;;;;;;22.93;100.00;94479.66;5037979;28;20036;-86
2022/08/05 05:21:47;;;;;;;24.27;3.50;;;;;;;23.01;100.00;94478.72;5037677;28;20025;-86
2022/08/05 05:24:13;;;;;;;11.52;3.00;;;;;;;23.18;96.04;94479.50;5037406;28;20030;-86
2022/08/05 05:26:38;;;;;;;7.13;2.70;;;;;;;23.09;95.61;94481.56;5037538;28;20056;-86
2022/08/05 05:29:06;;;;;;;8.75;2.55;;;;;;;23.19;93.68;94488.31;5025189;28;20065;-87
2022/08/05 05:31:31;;;;;;;6.82;1.83;;;;;;;22.99;95.26;94480.97;5017817;28;20033;-86
2022/08/05 05:33:58;;;;;;;7.70;2.58;;;;;;;23.05;100.00;94483.38;5017816;28;20355;-87
2022/08/05 05:36:23;;;;;;;7.50;2.00;;;;;;;23.10;100.00;94485.81;5016642;28;20156;-87
2022/08/05 05:38:49;;;;;;;4.93;1.70;;;;;;;23.28;100.00;94486.25;5016421;28;20034;-86
2022/08/05 05:41:14;;;;;;;28.77;4.75;;;;;;;23.64;92.13;94480.94;5016505;28;20072;-86
2022/08/05 05:43:40;;;;;;;53.60;5.80;;;;;;;23.49;98.46;94483.31;5017405;28;20029;-86
2022/08/05 05:46:06;;;;;;;10.63;2.28;;;;;;;23.53;96.35;94486.84;5017472;28;20091;-86
2022/08/05 05:48:31;;;;;;;20.00;3.25;;;;;;;23.79;97.06;94487.41;5016579;28;20423;-86
2022/08/05 05:50:56;;;;;;;23.92;3.60;;;;;;;23.91;96.75;94486.50;5017300;28;20034;-86
2022/08/05 05:53:24;;;;;;;12.60;2.40;;;;;;;24.20;93.37;94487.13;5015991;28;20041;-87
2022/08/05 05:55:49;;;;;;;17.23;2.55;;;;;;;24.40;93.53;94483.31;5016641;28;20069;-86
2022/08/05 05:58:15;;;;;;;12.75;2.88;;;;;;;24.61;87.61;94489.44;5016084;28;20061;-86
2022/08/05 06:00:40;;;;;;;18.23;2.80;;;;;;;24.64;88.23;94489.47;5017220;28;20084;-87
2022/08/05 06:03:08;;;;;;;20.08;2.38;;;;;;;24.57;86.25;94484.00;5016230;28;20137;-87
2022/08/05 06:05:41;;;;;;;4.28;2.00;;;;;;;24.54;85.85;94492.75;5017415;28;20040;-87
2022/08/05 06:08:14;;;;;;;7.82;2.13;;;;;;;24.73;86.00;94497.28;5017126;28;20444;-87
2022/08/05 06:10:39;;;;;;;5.00;1.98;;;;;;;24.88;86.80;94495.69;5017514;28;20061;-86
2022/08/05 06:13:05;;;;;;;4.30;1.77;;;;;;;24.93;87.09;94490.03;5016913;28;20395;-84
2022/08/05 06:15:30;;;;;;;3.58;1.83;;;;;;;25.12;86.38;94491.13;5016851;28;20037;-86
2022/08/05 06:17:56;;;;;;;2.15;1.73;;;;;;;25.25;86.96;94489.81;5015667;28;20454;-86
2022/08/05 06:20:21;;;;;;;5.65;1.95;;;;;;;25.24;88.34;94490.91;4999087;28;20121;-86
2022/08/05 06:22:47;;;;;;;3.67;1.83;;;;;;;25.47;85.55;94489.38;5017321;28;20116;-86
2022/08/05 06:25:12;;;;;;;2.50;1.77;;;;;;;25.55;85.05;94493.72;5015729;28;20428;-86
2022/08/05 06:27:40;;;;;;;3.08;1.70;;;;;;;25.62;84.21;94493.03;5016971;28;20029;-87
2022/08/05 06:30:06;;;;;;;3.00;1.75;;;;;;;25.63;82.03;94492.69;5015783;28;20516;-86
2022/08/05 06:32:32;;;;;;;2.38;1.40;;;;;;;25.75;79.81;94499.75;5029574;28;20462;-85
2022/08/05 06:34:57;;;;;;;5.82;1.80;;;;;;;25.78;79.09;94495.59;5026813;28;20026;-87
2022/08/05 06:37:27;;;;;;;3.72;1.80;;;;;;;25.80;77.48;94490.63;5022014;28;20115;-87
2022/08/05 06:39:52;;;;;;;5.55;2.10;;;;;;;25.73;78.29;94496.66;5022248;28;20052;-86
2022/08/05 06:42:18;;;;;;;4.03;1.70;;;;;;;25.94;76.48;94500.78;5022188;28;20017;-86
2022/08/05 06:44:43;;;;;;;2.50;1.83;;;;;;;26.14;76.10;94509.47;5005854;28;20036;-86
2022/08/05 06:47:09;;;;;;;5.45;1.80;;;;;;;26.19;77.02;94489.63;5023649;28;20025;-86
2022/08/05 06:49:34;;;;;;;6.45;1.83;;;;;;;26.11;78.31;94499.47;5023271;28;20338;-86
2022/08/05 06:52:00;;;;;;;3.05;1.90;;;;;;;26.27;76.70;94493.16;5021856;28;20447;-86
2022/08/05 06:54:25;;;;;;;3.97;1.52;;;;;;;26.29;76.28;94504.31;5041299;28;20029;-86
2022/08/05 06:56:51;;;;;;;2.42;1.73;;;;;;;26.39;79.26;94501.75;5025322;28;20044;-87
2022/08/05 06:59:16;;;;;;;2.90;1.65;;;;;;;26.59;76.55;94495.44;5042138;28;20033;-87
2022/08/05 07:01:42;;;;;;;2.63;1.58;;;;;;;26.73;72.95;94502.88;5043225;28;20021;-87
2022/08/05 07:04:08;;;;;;;7.97;1.90;;;;;;;26.79;74.42;94507.56;5025595;28;20342;-87
2022/08/05 07:06:46;;;;;;;;;;;;;;;;;;;;;
2022/08/05 07:09:24;;;;;;;;;;;;;;;;;;;;;
2022/08/05 07:11:50;;;;;;;2.67;1.73;;;;;;;27.03;70.93;94508.19;5042840;28;20018;-86
2022/08/05 07:17:03;;;;;;;4.45;1.55;;;;;;;27.04;75.69;94508.97;5041811;28;20045;-86
2022/08/05 07:19:28;;;;;;;5.82;1.70;;;;;;;27.14;71.54;94512.91;5041637;28;20061;-86
2022/08/05 07:21:57;;;;;;;2.50;2.00;;;;;;;27.31;69.20;94508.81;5042272;28;20099;-87
2022/08/05 07:24:26;;;;;;;4.57;1.80;;;;;;;27.49;70.89;94509.72;5024556;28;20384;-87
2022/08/05 07:26:51;;;;;;;1.92;1.58;;;;;;;27.56;72.16;94500.97;5036739;28;20040;-87
2022/08/05 07:29:24;;;;;;;4.00;1.65;;;;;;;27.77;70.38;94516.50;5043446;28;20030;-87
2022/08/05 07:31:49;;;;;;;3.83;1.83;;;;;;;27.79;68.15;94503.44;5043065;28;20036;-87
2022/08/05 07:34:17;;;;;;;4.43;1.77;;;;;;;28.04;69.02;94507.41;5024922;28;20021;-87
2022/08/05 07:36:42;;;;;;;3.00;1.80;;;;;;;28.19;65.98;94509.06;5043237;28;20120;-86
2022/08/05 07:39:08;;;;;;;3.60;1.98;;;;;;;28.29;65.71;94502.19;5037099;28;20033;-86
2022/08/05 07:41:46;;;;;;;;;;;;;;;;;;;;;
2022/08/05 07:44:12;;;;;;;3.35;1.60;;;;;;;28.56;63.26;94501.13;5022243;28;20344;-87
2022/08/05 07:46:37;;;;;;;3.50;1.58;;;;;;;28.60;60.14;94499.97;5038355;28;20029;-87
2022/08/05 07:49:04;;;;;;;4.45;1.85;;;;;;;28.79;61.08;94508.88;5033887;28;20080;-87
2022/08/05 07:51:30;;;;;;;3.13;1.60;;;;;;;28.90;62.43;94500.84;5038630;28;20132;-87
2022/08/05 07:53:58;;;;;;;6.32;1.88;;;;;;;28.98;60.77;94494.31;5021737;28;20041;-86
2022/08/05 07:56:23;;;;;;;4.05;1.70;;;;;;;29.18;60.53;94500.09;5038248;28;20037;-86
2022/08/05 07:58:51;;;;;;;2.30;1.73;;;;;;;29.03;59.29;94493.91;5038319;28;20081;-86
2022/08/05 08:01:18;;;;;;;2.92;1.55;;;;;;;29.19;56.85;94500.88;5022080;28;20040;-86
2022/08/05 08:03:43;;;;;;;2.28;1.60;;;;;;;29.25;57.05;94502.03;5037863;28;20033;-86
2022/08/05 08:06:12;;;;;;;3.05;1.63;;;;;;;29.31;57.04;94502.44;5021344;28;20048;-86
2022/08/05 08:08:37;;;;;;;8.20;1.60;;;;;;;29.52;54.90;94506.28;5021878;28;20060;-86
2022/08/05 08:11:14;;;;;;;3.17;1.52;;;;;;;29.61;52.39;94496.66;5037766;28;20427;-89
2022/08/05 08:13:41;;;;;;;2.25;1.58;;;;;;;29.72;50.72;94502.06;5022455;28;20022;-87
2022/08/05 08:16:06;;;;;;;2.17;1.60;;;;;;;29.76;48.37;94502.81;5017892;28;20029;-86
2022/08/05 08:18:32;;;;;;;1.30;1.20;;;;;;;29.59;48.91;94503.59;5017782;28;20022;-85
2022/08/05 08:20:57;;;;;;;3.15;1.40;;;;;;;29.75;51.08;94501.28;5017899;28;20479;-86
2022/08/05 08:23:31;;;;;;;1.83;1.40;;;;;;;29.91;47.29;94502.78;5018564;28;20029;-87
2022/08/05 08:25:56;;;;;;;2.30;1.40;;;;;;;29.67;47.64;94497.03;5001872;28;20109;-86
2022/08/05 08:28:22;;;;;;;2.30;1.70;;;;;;;29.83;47.65;94499.31;5017750;28;20423;-86
2022/08/05 08:30:47;;;;;;;8.35;1.75;;;;;;;30.03;46.77;94496.22;5018820;28;20064;-87
2022/08/05 08:33:21;;;;;;;4.22;1.75;;;;;;;30.09;45.23;94499.28;5017469;28;20037;-86
2022/08/05 08:35:47;;;;;;;3.55;1.58;;;;;;;30.18;44.45;94494.25;5017748;28;20431;-86
2022/08/05 08:38:15;;;;;;;2.28;1.60;;;;;;;30.25;44.90;94499.63;5017744;28;20117;-86
2022/08/05 08:40:40;;;;;;;3.75;1.80;;;;;;;30.39;45.79;94498.00;5017514;28;20033;-86
2022/08/05 08:43:07;;;;;;;3.60;1.20;;;;;;;30.32;44.84;94496.91;5017517;28;20022;-86
2022/08/05 08:45:35;;;;;;;3.90;1.50;;;;;;;30.27;45.01;94488.41;5001483;28;20080;-86
2022/08/05 08:48:03;;;;;;;5.82;1.25;;;;;;;30.45;43.21;94494.50;5024594;28;20069;-86
2022/08/05 08:50:30;;;;;;;3.45;1.70;;;;;;;30.48;44.84;94495.66;5037153;28;20040;-86
2022/08/05 08:53:01;;;;;;;1.40;1.13;;;;;;;30.45;43.43;94488.34;5020377;28;20034;-86
2022/08/05 08:55:26;;;;;;;1.60;1.30;;;;;;;30.64;42.12;94486.34;5037407;28;20160;-87
2022/08/05 08:57:57;;;;;;;3.50;1.45;;;;;;;30.79;41.91;94487.06;5037278;28;20061;-89
2022/08/05 09:00:33;;;;;;;;;;;;;;;;;;;;;
2022/08/05 09:03:01;;;;;;;6.78;1.67;;;;;;;30.88;42.70;94485.44;5036958;28;20022;-88
2022/08/05 09:05:29;;;;;;;5.60;1.50;;;;;;;30.89;40.77;94489.69;5020875;28;20037;-88
2022/08/05 09:08:07;;;;;;;2.35;1.40;;;;;;;30.88;40.25;94484.66;5021097;28;20506;-89
2022/08/05 09:10:43;;;;;;;;;;;;;;;;;;;;;
2022/08/05 09:13:25;;;;;;;1.80;1.30;;;;;;;31.02;40.77;94484.56;5036718;28;20025;-89
2022/08/05 09:16:01;;;;;;;3.58;1.60;;;;;;;31.29;40.19;94484.00;5037302;28;20037;-87
2022/08/05 09:18:29;;;;;;;7.28;1.40;;;;;;;31.23;38.50;94484.84;5037021;28;20029;-89
2022/08/05 09:21:00;;;;;;;1.75;1.35;;;;;;;30.72;38.65;94482.47;5036932;28;20112;-88
2022/08/05 09:23:36;;;;;;;2.22;1.42;;;;;;;31.01;39.94;94480.31;5021310;28;20120;-90
2022/08/05 09:26:28;;;;;;;4.95;1.60;;;;;;;30.98;38.82;94474.94;5030082;28;20030;-88
2022/08/05 09:28:58;;;;;;;4.20;1.42;;;;;;;31.03;39.37;94480.69;5001354;28;20038;-91
2022/08/05 09:31:28;;;;;;;11.57;1.70;;;;;;;30.88;39.54;94474.63;5000430;28;20462;-88
2022/08/05 09:33:57;;;;;;;2.05;1.40;;;;;;;31.21;39.35;94473.63;5017985;28;20037;-89
2022/08/05 09:36:23;;;;;;;10.15;1.70;;;;;;;30.94;38.79;94469.56;5001202;28;20038;-92
2022/08/05 09:38:58;;;;;;;4.80;1.70;;;;;;;30.93;39.37;94476.16;5000285;28;20359;-87
2022/08/05 09:41:26;;;;;;;3.08;1.67;;;;;;;30.95;38.95;94470.31;5017003;28;20034;-86
2022/08/05 09:44:12;;;;;;;2.28;1.40;;;;;;;31.28;39.44;94476.31;5016239;28;20080;-87
2022/08/05 09:50:18;;;;;;;;;;;;;;;;;;;;;
2022/08/05 09:52:54;;;;;;;;;;;;;;;;;;;;;
2022/08/05 09:55:34;;;;;;;5.40;1.48;;;;;;;31.95;39.37;94470.66;5016253;28;20029;-88
2022/08/05 09:58:19;;;;;;;;;;;;;;;;;;;;;
2022/08/05 10:01:08;;;;;;;;;;;;;;;;;;;;;
2022/08/05 10:04:09;;;;;;;;;;;;;;;;;;;;;
2022/08/05 10:06:35;;;;;;;1.83;1.50;;;;;;;31.97;39.38;94456.72;5016423;28;20028;-90
2022/08/05 10:09:17;;;;;;;5.88;2.00;;;;;;;32.08;38.21;94451.16;5000039;28;20132;-90
2022/08/05 10:11:53;;;;;;;;;;;;;;;;;;;;;
2022/08/05 10:14:24;;;;;;;2.20;1.55;;;;;;;32.40;38.16;94452.75;5015954;28;20335;-89
2022/08/05 10:16:50;;;;;;;5.70;1.42;;;;;;;32.37;37.62;94459.75;5016261;28;20440;-91
2022/08/05 10:19:16;;;;;;;6.50;1.50;;;;;;;32.15;37.20;94454.56;5016100;28;20030;-90
2022/08/05 10:21:41;;;;;;;3.85;1.80;;;;;;;32.23;37.45;94457.94;4999716;28;20083;-89
2022/08/05 10:24:11;;;;;;;5.10;1.70;;;;;;;32.08;38.30;94453.88;5019905;28;20029;-86
2022/08/05 10:26:39;;;;;;;5.22;1.70;;;;;;;32.52;37.71;94456.88;5018908;28;20033;-85
2022/08/05 10:29:06;;;;;;;4.65;1.67;;;;;;;32.82;37.33;94445.19;5015729;28;20034;-86
2022/08/05 10:31:43;;;;;;;4.72;2.20;;;;;;;32.88;37.46;94447.44;4998996;28;20088;-87
2022/08/05 10:34:09;;;;;;;3.22;1.80;;;;;;;32.42;37.68;94445.75;5000066;28;20084;-87
2022/08/05 10:36:50;;;;;;;5.38;2.20;;;;;;;32.55;37.61;94442.47;4999107;28;20038;-86
2022/08/05 10:39:23;;;;;;;6.90;1.90;;;;;;;32.82;37.68;94431.63;5015793;28;20117;-86
2022/08/05 10:41:54;;;;;;;;;;;;;;;33.14;38.17;94426.91;5000529;28;20029;-86
2022/08/05 10:44:23;;;;;;;3.10;1.98;;;;;;;33.05;38.18;94432.09;5016668;28;19916;-86
2022/08/05 10:47:18;;;;;;;3.92;1.70;;;;;;;33.21;37.77;94442.31;5024365;28;20038;-86
2022/08/05 10:50:08;;;;;;;2.85;1.55;;;;;;;33.14;37.49;94433.13;5016266;28;20041;-86
2022/08/05 10:52:43;;;;;;;1.95;1.50;;;;;;;33.55;38.19;94438.66;5017257;28;20034;-87
2022/08/05 10:55:10;;;;;;;2.55;1.70;;;;;;;33.44;37.30;94438.06;5035498;28;20034;-86
2022/08/05 10:57:38;;;;;;;2.75;1.50;;;;;;;33.25;37.17;94429.44;5035130;28;20453;-86
2022/08/05 11:00:15;;;;;;;2.65;1.58;;;;;;;33.33;37.14;94441.72;5035182;28;20084;-86
2022/08/05 11:03:02;;;;;;;6.15;2.20;;;;;;;32.64;37.70;94436.53;5018866;28;20136;-86
2022/08/05 11:05:30;;;;;;;2.33;1.50;;;;;;;32.16;38.22;94434.41;5036227;28;20032;-86
2022/08/05 11:08:03;;;;;;;4.35;1.73;;;;;;;32.50;38.38;94437.53;5020980;28;20037;-87
2022/08/05 11:10:29;;;;;;;3.00;1.80;;;;;;;32.55;37.99;94442.47;5015642;28;20030;-86
2022/08/05 11:12:56;;;;;;;3.90;1.80;;;;;;;32.38;38.28;94439.59;4998859;28;20352;-86
2022/08/05 11:15:33;;;;;;;4.20;1.67;;;;;;;32.60;37.94;94433.13;5020713;28;20033;-86
2022/08/05 11:18:28;;;;;;;3.97;1.90;;;;;;;32.85;38.71;94432.75;5034883;28;20025;-88
2022/08/05 11:20:54;;;;;;;3.70;1.80;;;;;;;32.97;38.06;94434.16;5018934;28;20025;-88
2022/08/05 11:23:37;;;;;;;7.20;1.80;;;;;;;33.25;38.64;94424.00;5021551;28;20071;-91
2022/08/05 11:26:08;;;;;;;4.32;1.73;;;;;;;33.44;37.75;94427.19;5021992;28;20088;-90
2022/08/05 11:28:42;;;;;;;5.43;1.90;;;;;;;33.55;38.50;94416.91;5039679;28;20025;-89
2022/08/05 11:31:11;;;;;;;6.32;2.17;;;;;;;33.27;37.86;94429.78;5039071;28;20041;-89
2022/08/05 11:33:48;;;;;;;2.08;1.88;;;;;;;33.18;37.99;94416.75;5039185;28;20120;-88
2022/08/05 11:36:18;;;;;;;5.15;2.00;;;;;;;33.45;37.68;94426.03;5038804;28;20033;-88
2022/08/05 11:38:50;;;;;;;3.63;2.40;;;;;;;32.75;37.29;94429.03;5038677;28;20427;-89
2022/08/05 11:42:13;;;;;;;2.58;1.90;;;;;;;33.42;38.40;94419.47;5039897;28;20115;-88
2022/08/05 11:44:41;;;;;;;7.93;2.53;;;;;;;33.86;37.67;94422.19;5039384;28;20040;-90
2022/08/05 11:47:07;;;;;;;4.50;2.20;;;;;;;33.68;37.27;94427.97;5038225;28;20033;-89
2022/08/05 11:49:32;;;;;;;12.40;2.10;;;;;;;33.83;37.66;94423.00;5038403;28;20039;-89
2022/08/05 11:51:58;;;;;;;9.73;2.00;;;;;;;33.67;37.36;94424.47;5022490;28;20526;-89
2022/08/05 11:54:31;;;;;;;3.15;2.20;;;;;;;33.36;37.15;94430.03;5038282;28;20033;-90
2022/08/05 11:56:57;;;;;;;4.00;1.90;;;;;;;33.21;36.62;94431.44;5022327;28;20091;-90
2022/08/05 11:59:26;;;;;;;2.92;2.00;;;;;;;32.95;36.87;94420.22;5039436;28;20332;-89
2022/08/05 12:02:02;;;;;;;10.07;2.00;;;;;;;33.32;37.57;94429.34;5022084;28;20029;-88
2022/08/05 12:04:39;;;;;;;4.82;2.25;;;;;;;33.95;36.64;94419.66;5038058;28;20025;-90
2022/08/05 12:07:06;;;;;;;4.63;1.83;;;;;;;33.44;36.65;94421.78;5039449;28;20033;-93
2022/08/05 12:09:39;;;;;;;8.10;2.20;;;;;;;33.14;36.59;94416.84;5016591;28;20030;-88
2022/08/05 12:12:08;;;;;;;8.52;1.98;;;;;;;32.87;37.38;94416.84;5018870;28;20132;-88